Time;durP1;ratioP1;P1;durP2;ratioP2;P2;SDS_P1;SDS_P2;PMS_P1;PMS_P2;Temp;Humidity;BMP_temperature;BMP_pressure;BME280_temperature;BME280_humidity;BME280_pressure;Samples;Min_cycle;Max_cycle;Signal;HPM_P1;HPM_P2
2022/04/07 00:02:18;;;;;;;2.92;2.40;;;11.00;99.90;;;10.78;100.00;99041.91;4991906;28;20061;-78
2022/04/07 00:04:45;;;;;;;3.47;2.53;;;11.10;99.90;;;10.77;100.00;99050.72;5008347;28;20562;-78
2022/04/07 00:07:12;;;;;;;3.25;2.33;;;11.70;99.90;;;10.69;100.00;99038.84;5009776;28;20762;-78
2022/04/07 00:09:39;;;;;;;2.83;2.35;;;11.00;99.90;;;10.72;100.00;99031.66;5010399;28;20042;-78
2022/04/07 00:12:07;;;;;;;3.38;2.33;;;11.00;99.90;;;10.70;100.00;99025.63;5010847;28;20464;-77
2022/04/07 00:14:34;;;;;;;2.75;2.13;;;11.00;99.90;;;10.65;100.00;99019.69;5009916;28;20411;-79
2022/04/07 00:17:01;;;;;;;2.55;2.10;;;11.60;99.90;;;10.58;100.00;99018.28;5009928;28;20038;-78
2022/04/07 00:19:28;;;;;;;3.28;2.35;;;11.00;99.90;;;10.53;100.00;99015.88;5008617;28;20046;-78
2022/04/07 00:21:59;;;;;;;3.25;2.22;;;10.90;99.90;;;10.58;100.00;98998.09;5009656;28;20063;-78
2022/04/07 00:24:26;;;;;;;3.78;2.63;;;11.20;99.90;;;10.54;100.00;98998.31;5009003;28;20125;-77
2022/04/07 00:26:53;;;;;;;3.47;2.45;;;10.90;99.90;;;10.52;100.00;98985.22;5007123;28;20050;-77
2022/04/07 00:29:21;;;;;;;3.40;2.03;;;10.80;99.90;;;10.48;100.00;98987.16;5008510;28;20144;-78
2022/04/07 00:31:55;;;;;;;2.95;1.90;;;11.40;99.90;;;10.52;100.00;98979.97;5007923;28;20046;-77
2022/04/07 00:34:23;;;;;;;3.40;1.73;;;12.40;99.90;;;10.42;100.00;98974.28;5025103;28;20148;-78
2022/04/07 00:36:50;;;;;;;3.88;2.17;;;10.80;99.90;;;10.42;100.00;98961.13;5008004;28;20053;-77
2022/04/07 00:39:17;;;;;;;4.05;2.30;;;10.80;99.90;;;10.41;100.00;98959.44;5013406;28;20046;-77
2022/04/07 00:41:45;;;;;;;4.50;2.03;;;10.80;99.90;;;10.40;100.00;98960.34;5008099;28;20038;-78
2022/04/07 00:44:13;;;;;;;3.40;2.10;;;11.40;99.90;;;10.39;100.00;98961.25;5006593;28;20125;-78
2022/04/07 00:46:41;;;;;;;2.17;1.80;;;12.70;99.90;;;10.31;100.00;98960.75;5008855;28;20060;-77
2022/04/07 00:49:09;;;;;;;3.78;2.50;;;12.20;99.90;;;10.34;100.00;98950.94;5007729;28;20052;-78
2022/04/07 00:51:40;;;;;;;3.53;2.53;;;11.40;99.90;;;10.32;100.00;98951.94;5025498;28;20049;-78
2022/04/07 00:54:09;;;;;;;3.28;2.15;;;10.70;99.90;;;10.29;100.00;98946.81;5009496;28;20134;-78
2022/04/07 00:56:37;;;;;;;2.17;1.97;;;10.60;99.90;;;10.31;100.00;98945.84;5024274;28;20694;-78
2022/04/07 00:59:08;;;;;;;2.33;2.10;;;10.80;99.90;;;10.34;100.00;98945.69;4991785;28;20408;-76
2022/04/07 01:01:35;;;;;;;2.97;2.67;;;10.60;99.90;;;10.31;100.00;98939.72;5007354;28;20050;-77
2022/04/07 01:04:02;;;;;;;2.00;1.80;;;10.70;99.90;;;10.30;100.00;98935.38;5007694;28;20045;-78
2022/04/07 01:06:30;;;;;;;2.53;1.98;;;10.60;99.90;;;10.34;100.00;98937.81;5009809;28;20042;-78
2022/04/07 01:08:58;;;;;;;2.75;2.00;;;11.00;99.90;;;10.39;100.00;98926.22;5009101;28;20053;-78
2022/04/07 01:11:26;;;;;;;2.83;2.20;;;10.70;99.90;;;10.33;100.00;98929.97;5011441;28;20049;-78
2022/04/07 01:13:53;;;;;;;3.53;2.38;;;12.30;99.90;;;10.33;100.00;98929.97;5007339;28;20047;-77
2022/04/07 01:16:26;;;;;;;3.13;2.00;;;10.70;99.90;;;10.36;100.00;98935.94;5008278;28;20034;-77
2022/04/07 01:18:56;;;;;;;2.45;1.70;;;10.70;99.90;;;10.36;100.00;98941.22;5007492;28;20156;-78
2022/04/07 01:21:24;;;;;;;3.00;2.25;;;10.70;99.90;;;10.43;100.00;98935.69;5007852;28;20057;-78
2022/04/07 01:24:00;;;;;;;2.42;1.88;;;10.70;99.90;;;10.41;100.00;98935.78;5006506;28;20416;-77
2022/04/07 01:26:30;;;;;;;2.58;1.80;;;10.70;99.90;;;10.45;100.00;98939.97;5008703;28;20050;-78
2022/04/07 01:28:59;;;;;;;;;;;10.70;99.90;;;10.50;100.00;98930.06;5024842;28;20093;-78
2022/04/07 01:31:27;;;;;;;2.30;1.80;;;10.80;99.90;;;10.52;100.00;98923.88;5008142;28;20450;-78
2022/04/07 01:33:57;;;;;;;2.78;1.98;;;10.90;99.90;;;10.57;100.00;98935.91;4992678;28;20565;-77
2022/04/07 01:36:29;;;;;;;3.08;1.83;;;10.80;99.90;;;10.52;100.00;98924.75;5008750;28;20034;-77
2022/04/07 01:39:01;;;;;;;2.08;1.27;;;10.80;99.90;;;10.57;100.00;98917.47;5008454;28;20048;-79
2022/04/07 01:41:28;;;;;;;1.95;1.45;;;10.80;99.90;;;10.59;100.00;98930.56;5011403;28;20065;-77
2022/04/07 01:43:58;;;;;;;2.92;1.60;;;10.80;99.90;;;10.56;100.00;98910.53;5011327;28;20059;-77
2022/04/07 01:46:26;;;;;;;2.42;1.50;;;10.90;99.90;;;10.53;100.00;98925.59;5010573;28;20726;-78
2022/04/07 01:48:55;;;;;;;1.73;1.42;;;10.90;99.90;;;10.55;100.00;98913.25;5011065;28;20487;-78
2022/04/07 01:51:24;;;;;;;1.85;1.60;;;10.90;99.90;;;10.49;100.00;98909.97;5027653;28;20156;-78
2022/04/07 01:53:51;;;;;;;3.45;1.85;;;11.00;99.90;;;10.58;100.00;98918.34;5010613;28;20423;-78
2022/04/07 01:56:20;;;;;;;2.65;1.55;;;12.40;99.90;;;10.54;100.00;98911.53;5011740;28;20041;-78
2022/04/07 01:58:48;;;;;;;1.98;1.60;;;10.80;99.90;;;10.60;100.00;98919.13;5011208;28;20045;-78
2022/04/07 02:01:16;;;;;;;1.55;1.45;;;11.80;99.90;;;10.57;100.00;98911.38;5006569;28;20509;-78
2022/04/07 02:03:45;;;;;;;2.03;1.58;;;10.90;99.90;;;10.60;100.00;98919.13;5007037;28;20060;-77
2022/04/07 02:06:18;;;;;;;2.80;1.35;;;10.90;99.90;;;10.57;100.00;98916.66;4988035;28;20049;-78
2022/04/07 02:08:46;;;;;;;2.75;1.50;;;10.90;99.90;;;10.61;100.00;98899.78;5012607;28;20067;-78
2022/04/07 02:11:13;;;;;;;3.08;1.75;;;10.90;99.90;;;10.57;100.00;98893.81;5011366;28;20541;-78
2022/04/07 02:13:41;;;;;;;1.35;1.25;;;10.90;99.90;;;10.56;100.00;98904.44;5011033;28;20479;-78
2022/04/07 02:16:10;;;;;;;3.13;1.63;;;10.90;99.90;;;10.58;100.00;98897.31;5011936;28;20123;-77
2022/04/07 02:18:39;;;;;;;1.80;1.48;;;10.90;99.90;;;10.56;100.00;98901.78;4996653;28;20056;-78
2022/04/07 02:21:07;;;;;;;2.17;1.45;;;10.90;99.90;;;10.56;100.00;98886.84;5009561;28;20038;-77
2022/04/07 02:23:41;;;;;;;2.42;1.40;;;10.90;99.90;;;10.56;100.00;98896.53;5025977;28;20061;-76
2022/04/07 02:26:13;;;;;;;1.33;1.23;;;10.90;99.90;;;10.54;100.00;98886.06;4996178;28;20045;-78
2022/04/07 02:28:40;;;;;;;1.48;1.35;;;10.90;99.90;;;10.53;100.00;98904.53;5024170;28;20517;-78
2022/04/07 02:31:08;;;;;;;3.28;1.65;;;10.90;99.90;;;10.55;100.00;98893.03;5011454;28;20049;-76
2022/04/07 02:33:36;;;;;;;2.15;1.33;;;11.00;99.90;;;10.54;100.00;98885.25;5008684;28;20527;-76
2022/04/07 02:36:05;;;;;;;2.05;1.60;;;11.20;99.90;;;10.55;100.00;98886.94;5011210;28;20060;-78
2022/04/07 02:38:34;;;;;;;1.80;1.20;;;10.90;99.90;;;10.55;100.00;98879.06;5011154;28;20050;-77
2022/04/07 02:41:01;;;;;;;2.17;1.30;;;10.90;99.90;;;10.55;100.00;98879.06;4994474;28;20074;-78
2022/04/07 02:43:28;;;;;;;1.83;1.20;;;10.80;99.90;;;10.50;100.00;98879.25;5008933;28;20511;-78
2022/04/07 02:45:55;;;;;;;1.92;1.70;;;10.90;99.90;;;10.50;100.00;98889.78;5011379;28;20042;-78
2022/04/07 02:48:23;;;;;;;2.30;1.60;;;10.80;99.90;;;10.53;100.00;98879.13;5010522;28;20046;-77
2022/04/07 02:50:50;;;;;;;1.65;1.23;;;10.90;99.90;;;10.56;100.00;98875.50;5010724;28;20038;-78
2022/04/07 02:53:16;;;;;;;4.80;2.13;;;10.80;99.90;;;10.47;100.00;98855.75;4992115;28;20057;-78
2022/04/07 02:55:43;;;;;;;3.05;1.40;;;10.90;99.90;;;10.53;100.00;98859.84;5009473;28;20053;-79
2022/04/07 02:58:10;;;;;;;1.80;1.20;;;11.20;99.90;;;10.52;100.00;98851.13;5026501;28;20034;-78
2022/04/07 03:00:38;;;;;;;2.58;1.40;;;10.80;99.90;;;10.55;100.00;98853.59;5026186;28;20100;-78
2022/04/07 03:03:05;;;;;;;2.03;1.48;;;12.20;99.90;;;10.52;100.00;98840.59;4994494;28;20534;-78
2022/04/07 03:05:32;;;;;;;2.10;1.45;;;10.90;99.90;;;10.50;100.00;98843.28;4994389;28;20038;-78
2022/04/07 03:07:58;;;;;;;1.63;1.25;;;10.80;99.90;;;10.53;100.00;98837.03;4995828;28;20072;-78
2022/04/07 03:10:25;;;;;;;1.25;1.15;;;10.90;99.90;;;10.54;100.00;98830.00;5012711;28;20038;-78
2022/04/07 03:12:52;;;;;;;2.28;1.75;;;10.90;99.90;;;10.49;100.00;98831.06;5012771;28;20501;-78
2022/04/07 03:15:20;;;;;;;2.08;1.50;;;12.60;99.90;;;10.49;100.00;98844.22;4992699;28;20045;-77
2022/04/07 03:17:47;;;;;;;2.08;1.52;;;10.80;99.90;;;10.54;100.00;98822.97;5009970;28;20042;-76
2022/04/07 03:20:14;;;;;;;2.60;1.35;;;10.80;99.90;;;10.53;100.00;98826.53;5008817;28;20056;-77
2022/04/07 03:22:41;;;;;;;1.23;1.05;;;10.80;99.90;;;10.57;100.00;98811.44;5009653;28;20046;-77
2022/04/07 03:25:08;;;;;;;1.92;1.20;;;10.90;99.90;;;10.59;100.00;98809.59;5024666;28;20049;-77
2022/04/07 03:27:35;;;;;;;1.25;1.15;;;10.90;99.90;;;10.58;100.00;98815.78;4992717;28;20459;-78
2022/04/07 03:30:03;;;;;;;2.03;1.20;;;11.00;99.90;;;10.60;100.00;98819.19;5010484;28;20053;-77
2022/04/07 03:32:30;;;;;;;1.27;1.17;;;10.90;99.90;;;10.61;100.00;98816.50;4992103;28;20410;-77
2022/04/07 03:34:57;;;;;;;2.42;1.05;;;10.90;99.90;;;10.58;100.00;98802.63;5009507;28;20045;-78
2022/04/07 03:37:24;;;;;;;1.95;1.75;;;11.20;99.90;;;10.59;100.00;98809.59;4993083;28;20050;-77
2022/04/07 03:39:51;;;;;;;1.77;1.35;;;12.20;99.90;;;10.58;100.00;98806.09;5008776;28;20822;-76
2022/04/07 03:42:18;;;;;;;2.83;1.30;;;10.90;99.90;;;10.62;100.00;98804.19;4993190;28;20423;-78
2022/04/07 03:44:45;;;;;;;1.77;1.40;;;10.90;99.90;;;10.62;100.00;98794.53;5005695;28;20042;-77
2022/04/07 03:47:12;;;;;;;2.40;1.38;;;12.20;99.90;;;10.62;100.00;98793.66;4986307;28;20045;-78
2022/04/07 03:49:39;;;;;;;1.95;1.10;;;10.90;99.90;;;10.59;100.00;98793.81;5008633;28;20045;-78
2022/04/07 03:52:08;;;;;;;2.28;1.33;;;10.90;99.90;;;10.62;100.00;98789.25;5008584;28;20573;-76
2022/04/07 03:54:35;;;;;;;4.35;1.55;;;10.90;99.90;;;10.68;100.00;98787.25;5007199;28;20597;-78
2022/04/07 03:57:02;;;;;;;1.17;1.00;;;10.90;99.90;;;10.73;100.00;98785.22;5009012;28;20038;-78
2022/04/07 03:59:33;;;;;;;1.15;1.00;;;11.00;99.90;;;10.71;100.00;98782.69;4993080;28;20050;-77
2022/04/07 04:02:00;;;;;;;1.90;1.20;;;11.00;99.90;;;10.75;100.00;98791.25;5006179;28;20746;-78
2022/04/07 04:04:27;;;;;;;1.58;1.20;;;11.90;99.90;;;10.74;100.00;98785.16;5012035;28;20049;-78
2022/04/07 04:06:54;;;;;;;1.33;1.00;;;11.10;99.90;;;10.72;100.00;98781.75;5009042;28;20069;-78
2022/04/07 04:09:21;;;;;;;1.02;0.95;;;11.00;99.90;;;10.73;100.00;98775.56;5009526;28;20053;-77
2022/04/07 04:11:48;;;;;;;1.27;1.17;;;11.10;99.90;;;10.79;100.00;98769.16;5003234;28;20053;-78
2022/04/07 04:14:16;;;;;;;1.48;0.93;;;12.60;99.90;;;10.80;100.00;98770.00;5002112;28;20061;-77
2022/04/07 04:16:43;;;;;;;2.70;1.08;;;11.10;99.90;;;10.82;100.00;98763.72;5010546;28;20104;-77
2022/04/07 04:19:10;;;;;;;2.17;1.25;;;11.10;99.90;;;10.78;100.00;98768.28;5012847;28;20038;-79
2022/04/07 04:21:37;;;;;;;1.55;1.38;;;11.10;99.90;;;10.80;100.00;98768.22;5011926;28;20096;-78
2022/04/07 04:24:05;;;;;;;3.28;1.30;;;11.10;99.90;;;10.79;100.00;98761.25;5009690;28;20034;-78
2022/04/07 04:26:32;;;;;;;1.98;1.10;;;11.10;99.90;;;10.80;100.00;98764.72;5008984;28;20450;-76
2022/04/07 04:28:59;;;;;;;1.30;1.17;;;11.70;99.90;;;10.73;100.00;98756.28;5008826;28;20045;-78
2022/04/07 04:31:26;;;;;;;1.27;1.17;;;11.10;99.90;;;10.78;100.00;98757.75;5009027;28;20640;-78
2022/04/07 04:33:56;;;;;;;1.10;1.00;;;11.10;99.90;;;10.78;100.00;98763.03;5007519;28;20046;-75
2022/04/07 04:36:23;;;;;;;1.38;1.10;;;11.00;99.90;;;10.68;100.00;98766.19;5005318;28;20495;-77
2022/04/07 04:38:50;;;;;;;2.28;1.10;;;11.20;99.90;;;10.63;100.00;98777.81;5007699;28;20037;-76
2022/04/07 04:41:17;;;;;;;1.10;0.98;;;12.30;99.90;;;10.58;100.00;98768.44;5007673;28;20046;-75
2022/04/07 04:43:44;;;;;;;1.45;1.17;;;10.90;99.90;;;10.59;100.00;98757.81;5001971;28;20438;-75
2022/04/07 04:46:12;;;;;;;1.83;1.00;;;10.90;99.90;;;10.47;100.00;98756.66;5012534;28;20490;-76
2022/04/07 04:48:39;;;;;;;2.63;1.00;;;12.50;99.90;;;10.46;100.00;98762.84;5007857;28;20064;-76
2022/04/07 04:51:06;;;;;;;3.05;1.50;;;11.20;99.90;;;10.44;100.00;98769.97;5007914;28;20128;-77
2022/04/07 04:53:34;;;;;;;1.52;1.30;;;10.80;99.90;;;10.39;100.00;98753.56;5007322;28;20057;-77
2022/04/07 04:56:01;;;;;;;1.88;1.20;;;12.60;99.90;;;10.35;100.00;98750.22;5004008;28;20137;-76
2022/04/07 04:58:28;;;;;;;1.42;1.20;;;12.00;99.90;;;10.37;100.00;98734.34;5007511;28;20041;-77
2022/04/07 05:00:55;;;;;;;1.85;1.30;;;10.70;99.90;;;10.43;100.00;98738.47;5008640;28;20037;-77
2022/04/07 05:03:22;;;;;;;1.52;1.20;;;10.70;99.90;;;10.41;100.00;98740.34;5008602;28;20088;-76
2022/04/07 05:05:49;;;;;;;3.28;1.27;;;10.80;99.90;;;10.39;100.00;98734.28;5008053;28;20041;-77
2022/04/07 05:08:19;;;;;;;1.70;1.35;;;11.70;99.90;;;10.43;100.00;98726.19;5006899;28;20578;-77
2022/04/07 05:10:46;;;;;;;1.42;1.25;;;11.50;99.90;;;10.43;100.00;98731.47;5007358;28;20120;-76
2022/04/07 05:13:13;;;;;;;2.83;1.50;;;10.70;99.90;;;10.41;100.00;98709.66;5007313;28;20065;-77
2022/04/07 05:15:40;;;;;;;3.92;1.10;;;10.70;99.90;;;10.40;100.00;98723.69;5007825;28;20050;-77
2022/04/07 05:18:07;;;;;;;2.60;1.10;;;10.70;99.90;;;10.45;100.00;98705.94;5007374;28;20069;-76
2022/04/07 05:20:35;;;;;;;2.28;1.40;;;10.80;99.90;;;10.50;100.00;98700.44;5008863;28;20072;-76
2022/04/07 05:23:02;;;;;;;1.42;1.00;;;10.80;99.90;;;10.58;100.00;98710.59;5006725;28;20050;-76
2022/04/07 05:25:29;;;;;;;1.92;1.10;;;10.80;99.90;;;10.58;100.00;98708.78;5008540;28;20136;-77
2022/04/07 05:27:56;;;;;;;1.48;1.02;;;10.80;99.90;;;10.61;100.00;98692.88;5006485;28;20633;-76
2022/04/07 05:30:23;;;;;;;1.50;0.85;;;10.90;99.90;;;10.64;100.00;98699.75;5006976;28;20053;-75
2022/04/07 05:32:52;;;;;;;0.95;0.95;;;10.90;99.90;;;10.62;100.00;98701.59;5007699;28;20054;-77
2022/04/07 05:35:19;;;;;;;5.05;1.35;;;10.90;99.90;;;10.62;100.00;98691.94;5008053;28;20050;-77
2022/04/07 05:37:46;;;;;;;2.30;1.60;;;11.00;99.90;;;10.64;100.00;98687.47;5007364;28;20424;-76
2022/04/07 05:40:13;;;;;;;1.63;1.00;;;11.00;99.90;;;10.73;100.00;98693.16;5007581;28;20510;-76
2022/04/07 05:42:41;;;;;;;1.60;1.38;;;10.90;99.90;;;10.69;100.00;98668.78;5008725;28;20048;-76
2022/04/07 05:45:09;;;;;;;2.50;1.30;;;12.50;99.90;;;10.71;100.00;98664.31;5012143;28;20590;-76
2022/04/07 05:47:40;;;;;;;1.30;1.10;;;12.00;99.90;;;10.74;100.00;98671.19;5010819;28;20049;-76
2022/04/07 05:50:09;;;;;;;1.10;0.90;;;11.00;99.90;;;10.73;100.00;98662.47;5006940;28;20105;-76
2022/04/07 05:52:37;;;;;;;1.67;1.02;;;11.00;99.90;;;10.77;100.00;98655.22;5006809;28;20054;-76
2022/04/07 05:55:05;;;;;;;1.67;1.40;;;11.00;99.90;;;10.82;100.00;98650.59;5008092;28;20050;-76
2022/04/07 05:57:32;;;;;;;1.77;1.10;;;11.10;99.90;;;10.84;100.00;98654.00;5007806;28;20046;-76
2022/04/07 06:00:12;;;;;;;1.55;1.20;;;11.60;99.90;;;10.83;100.00;98667.22;5007112;28;20062;-76
2022/04/07 06:02:42;;;;;;;1.52;1.10;;;11.10;99.90;;;10.85;100.00;98646.94;5009207;28;20046;-76
2022/04/07 06:05:10;;;;;;;3.00;1.27;;;11.10;99.90;;;10.85;100.00;98644.31;5008221;28;20132;-76
2022/04/07 06:07:38;;;;;;;1.10;1.00;;;11.20;99.90;;;10.89;100.00;98653.75;5007992;28;20057;-76
2022/04/07 06:10:08;;;;;;;1.85;1.10;;;11.20;99.90;;;10.87;100.00;98666.97;5007734;28;20049;-75
2022/04/07 06:12:35;;;;;;;1.20;1.08;;;11.20;99.90;;;10.91;100.00;98642.19;5009065;28;20420;-77
2022/04/07 06:15:04;;;;;;;1.42;1.00;;;11.80;99.90;;;10.90;100.00;98651.03;5009692;28;20042;-75
2022/04/07 06:17:38;;;;;;;1.55;1.20;;;11.20;99.90;;;10.82;100.00;98645.34;5015380;28;20550;-75
2022/04/07 06:20:10;;;;;;;0.80;0.80;;;11.20;99.90;;;10.82;100.00;98645.34;5027071;28;20046;-76
2022/04/07 06:22:39;;;;;;;1.33;1.02;;;11.20;99.90;;;10.81;100.00;98643.63;5011167;28;20134;-77
2022/04/07 06:25:06;;;;;;;2.22;1.13;;;11.20;99.90;;;10.86;100.00;98635.50;5008317;28;20264;-77
2022/04/07 06:27:38;;;;;;;1.27;1.00;;;11.10;99.90;;;10.76;100.00;98630.72;5011946;28;20114;-77
2022/04/07 06:30:09;;;;;;;1.48;1.08;;;12.50;99.90;;;10.70;100.00;98620.53;5013280;28;20088;-77
2022/04/07 06:32:37;;;;;;;1.63;1.10;;;11.00;99.90;;;10.66;100.00;98618.97;5010787;28;20050;-76
2022/04/07 06:35:11;;;;;;;1.20;1.10;;;11.00;99.90;;;10.71;100.00;98611.72;4994976;28;20038;-75
2022/04/07 06:38:04;;;;;;;1.67;1.10;;;11.00;99.90;;;10.78;100.00;98604.34;5010745;28;20065;-74
2022/04/07 06:40:37;;;;;;;1.10;1.00;;;11.00;99.90;;;10.73;100.00;98623.00;5013679;28;20054;-77
2022/04/07 06:43:04;;;;;;;1.00;0.90;;;11.00;99.90;;;10.72;100.00;98588.88;5011760;28;20053;-76
2022/04/07 06:45:31;;;;;;;1.20;0.80;;;11.00;99.90;;;10.66;100.00;98595.31;5012239;28;20038;-76
2022/04/07 06:48:01;;;;;;;1.10;1.00;;;11.20;99.90;;;10.72;100.00;98588.88;5011195;28;20050;-76
2022/04/07 06:50:28;;;;;;;4.03;1.23;;;11.00;99.90;;;10.70;100.00;98572.31;5010190;28;20399;-76
2022/04/07 06:52:56;;;;;;;1.83;1.55;;;11.30;99.90;;;10.70;100.00;98559.19;5010199;28;20045;-76
2022/04/07 06:55:28;;;;;;;1.23;1.10;;;11.00;99.90;;;10.69;100.00;98574.09;4994991;28;20152;-76
2022/04/07 06:58:00;;;;;;;1.80;0.90;;;12.40;99.90;;;10.73;100.00;98559.00;5010543;28;20122;-75
2022/04/07 07:00:33;;;;;;;1.55;1.00;;;11.00;99.90;;;10.70;100.00;98549.50;5009998;28;20045;-76
2022/04/07 07:03:03;;;;;;;4.78;1.10;;;11.10;99.90;;;10.69;100.00;98558.31;5009694;28;20034;-76
2022/04/07 07:05:34;;;;;;;2.47;0.98;;;11.00;99.90;;;10.69;100.00;98536.44;5009406;28;20042;-76
2022/04/07 07:08:23;;;;;;;1.35;0.88;;;11.00;99.90;;;10.67;100.00;98531.25;5010794;28;20080;-76
2022/04/07 07:10:51;;;;;;;2.85;1.10;;;11.00;99.90;;;10.72;100.00;98547.66;5012227;28;20046;-76
2022/04/07 07:13:21;;;;;;;1.50;1.00;;;11.00;99.90;;;10.76;100.00;98538.66;5014694;28;20133;-76
2022/04/07 07:15:53;;;;;;;1.42;1.10;;;12.60;99.90;;;10.80;100.00;98541.97;5016247;28;20076;-76
2022/04/07 07:18:21;;;;;;;2.83;1.25;;;11.00;99.90;;;10.77;100.00;98528.97;5014684;28;20098;-77
2022/04/07 07:20:48;;;;;;;1.88;1.10;;;12.10;99.90;;;10.82;100.00;98523.44;5013879;28;20124;-77
2022/04/07 07:23:15;;;;;;;1.65;1.10;;;11.00;99.90;;;10.80;100.00;98528.81;5013031;28;20046;-77
2022/04/07 07:25:43;;;;;;;1.63;1.00;;;11.10;99.90;;;10.82;100.00;98510.31;5016019;28;20110;-77
2022/04/07 07:28:10;;;;;;;2.88;1.58;;;11.00;99.90;;;10.78;100.00;98502.59;5018043;28;20550;-77
2022/04/07 07:30:40;;;;;;;0.77;0.77;;;11.10;99.90;;;10.86;100.00;98506.59;5012371;28;20050;-75
2022/04/07 07:33:08;;;;;;;;;;;12.10;99.90;;;10.89;100.00;98491.47;5011226;28;20050;-75
2022/04/07 07:35:35;;;;;;;2.42;1.38;;;11.10;99.90;;;10.90;100.00;98497.59;5029836;28;19922;-76
2022/04/07 07:38:04;;;;;;;2.67;1.33;;;11.20;99.90;;;10.79;100.00;98487.66;4994424;28;20121;-77
2022/04/07 07:40:32;;;;;;;0.88;0.88;;;11.20;99.90;;;10.91;100.00;98467.72;5007117;28;20092;-77
2022/04/07 07:43:04;;;;;;;1.40;1.25;;;11.20;99.90;;;10.98;100.00;98469.03;5005562;28;20046;-77
2022/04/07 07:45:34;;;;;;;1.77;1.00;;;11.30;99.90;;;11.09;100.00;98457.94;5006271;28;20043;-76
2022/04/07 07:48:28;;;;;;;2.10;1.03;;;11.30;99.90;;;11.04;100.00;98460.81;5003880;28;20042;-76
2022/04/07 07:50:57;;;;;;;1.20;0.90;;;11.40;99.90;;;11.12;100.00;98459.53;5005841;28;20297;-76
2022/04/07 07:53:27;;;;;;;4.97;1.42;;;11.30;99.90;;;11.15;100.00;98465.47;5021889;28;20113;-75
2022/04/07 07:55:54;;;;;;;4.57;3.30;;;11.70;99.90;;;11.18;100.00;98453.94;5010449;28;20080;-76
2022/04/07 07:58:24;;;;;;;1.48;0.82;;;12.90;99.90;;;11.14;100.00;98436.59;5010139;28;20117;-74
2022/04/07 08:00:52;;;;;;;2.63;1.10;;;11.50;99.90;;;11.19;100.00;98434.56;5009309;28;20567;-74
2022/04/07 08:03:19;;;;;;;2.67;1.63;;;11.40;99.90;;;11.26;100.00;98435.06;5008508;28;20038;-76
2022/04/07 08:05:46;;;;;;;1.83;1.40;;;11.40;99.90;;;11.17;100.00;98431.19;5006975;28;20681;-75
2022/04/07 08:08:14;;;;;;;2.50;1.08;;;11.50;99.90;;;11.27;100.00;98427.06;5008744;28;20038;-75
2022/04/07 08:10:41;;;;;;;1.23;1.00;;;11.50;99.90;;;11.33;100.00;98439.88;5010672;28;20065;-75
2022/04/07 08:13:08;;;;;;;2.70;1.38;;;11.60;99.90;;;11.47;100.00;98415.38;5010721;28;20061;-75
2022/04/07 08:15:36;;;;;;;1.58;1.20;;;11.60;99.90;;;11.51;100.00;98408.16;5025705;28;20057;-75
2022/04/07 08:18:04;;;;;;;1.88;1.25;;;11.70;99.90;;;11.60;100.00;98404.94;5010792;28;20125;-75
2022/04/07 08:20:31;;;;;;;1.73;1.20;;;11.70;99.90;;;11.67;100.00;98415.97;5025303;28;20052;-75
2022/04/07 08:22:59;;;;;;;1.83;1.00;;;11.80;99.90;;;11.74;100.00;98412.03;5008436;28;20057;-76
2022/04/07 08:25:26;;;;;;;1.70;1.20;;;11.90;99.90;;;11.83;100.00;98402.72;5019596;28;20034;-76
2022/04/07 08:27:53;;;;;;;2.90;1.10;;;12.00;99.90;;;11.85;100.00;98415.78;5005778;28;20499;-76
2022/04/07 08:30:20;;;;;;;5.03;1.88;;;12.00;99.90;;;11.81;100.00;98417.78;5019517;28;20054;-72
2022/04/07 08:32:47;;;;;;;1.15;1.02;;;12.10;99.90;;;11.81;100.00;98396.72;5004004;28;20064;-75
2022/04/07 08:35:14;;;;;;;3.95;1.30;;;12.10;99.90;;;11.74;100.00;98395.38;5010095;28;20042;-74
2022/04/07 08:37:41;;;;;;;4.10;1.08;;;12.10;99.90;;;11.81;100.00;98398.47;5018038;28;20050;-74
2022/04/07 08:40:09;;;;;;;1.52;1.10;;;12.20;99.90;;;11.57;100.00;98399.88;5011458;28;20045;-77
2022/04/07 08:42:36;;;;;;;4.93;2.47;;;12.00;99.90;;;11.49;100.00;98395.06;5011032;28;20081;-78
2022/04/07 08:45:05;;;;;;;4.18;1.55;;;12.20;99.90;;;11.37;100.00;98405.47;5011572;28;20506;-78
2022/04/07 08:47:34;;;;;;;2.08;1.10;;;11.70;99.90;;;11.14;100.00;98410.28;5008920;28;20054;-77
2022/04/07 08:50:03;;;;;;;2.92;1.40;;;11.80;99.90;;;11.11;100.00;98390.28;5007286;28;20046;-76
2022/04/07 08:52:32;;;;;;;4.15;1.10;;;11.40;99.90;;;11.07;100.00;98400.13;5008248;28;20045;-76
2022/04/07 08:54:59;;;;;;;4.57;1.30;;;11.60;99.90;;;10.99;100.00;98370.75;5007759;28;20068;-76
2022/04/07 08:57:29;;;;;;;2.97;1.50;;;11.30;99.90;;;11.10;100.00;98367.53;5007424;28;20491;-77
2022/04/07 08:59:57;;;;;;;2.55;1.17;;;11.30;99.90;;;11.14;100.00;98374.28;5003190;28;20077;-76
2022/04/07 09:02:24;;;;;;;4.25;1.17;;;12.90;99.90;;;11.21;100.00;98374.78;5008634;28;20098;-76
2022/04/07 09:05:01;;;;;;;4.40;0.93;;;11.40;99.90;;;11.37;100.00;98379.16;5008158;28;20116;-76
2022/04/07 09:07:33;;;;;;;4.53;1.50;;;11.50;99.90;;;11.43;100.00;98374.38;5008536;28;20053;-77
2022/04/07 09:10:04;;;;;;;1.90;1.10;;;11.60;99.90;;;11.51;100.00;98367.78;5009168;28;20042;-75
2022/04/07 09:12:34;;;;;;;1.75;1.20;;;11.70;99.90;;;11.63;100.00;98360.00;5031622;28;20124;-75
2022/04/07 09:15:01;;;;;;;2.58;0.82;;;11.80;99.90;;;11.68;100.00;98387.84;5009939;28;20073;-75
2022/04/07 09:17:32;;;;;;;3.00;1.75;;;11.90;99.90;;;11.71;100.00;98379.75;4992726;28;20077;-74
2022/04/07 09:19:59;;;;;;;;;;;12.00;99.90;;;11.74;100.00;98359.34;5007592;28;20038;-75
2022/04/07 09:22:31;;;;;;;1.60;1.08;;;12.00;99.90;;;11.70;100.00;98375.44;5007254;28;20031;-74
2022/04/07 09:25:05;;;;;;;3.13;1.30;;;12.00;99.90;;;11.58;100.00;98377.03;5007399;28;20069;-76
2022/04/07 09:27:33;;;;;;;2.92;1.40;;;11.90;99.90;;;11.56;100.00;98387.63;5007670;28;20068;-76
2022/04/07 09:30:00;;;;;;;3.08;1.17;;;11.80;99.90;;;11.47;100.00;98399.56;5007725;28;20046;-77
2022/04/07 09:32:28;;;;;;;2.05;0.95;;;11.80;99.90;;;11.45;100.00;98369.84;5008923;28;20053;-77
2022/04/07 09:34:58;;;;;;;2.70;1.10;;;11.80;99.90;;;11.48;100.00;98360.94;5008159;28;20132;-76
2022/04/07 09:37:30;;;;;;;1.73;1.42;;;11.70;99.90;;;11.30;100.00;98347.06;5010117;28;20113;-76
2022/04/07 09:40:16;;;;;;;1.58;1.10;;;11.70;99.90;;;11.33;100.00;98331.09;4992096;28;20073;-76
2022/04/07 09:42:43;;;;;;;1.25;1.02;;;11.60;99.90;;;11.28;100.00;98325.25;5008088;28;20038;-75
2022/04/07 09:45:13;;;;;;;1.33;1.23;;;11.60;99.90;;;11.30;100.00;98324.19;4991026;28;20636;-75
2022/04/07 09:47:41;;;;;;;3.35;1.23;;;11.60;99.90;;;11.23;100.00;98304.47;4996208;28;20380;-77
2022/04/07 09:50:28;;;;;;;3.58;1.30;;;12.10;99.90;;;11.31;100.00;98296.94;5007573;28;20056;-77
2022/04/07 09:53:04;;;;;;;2.55;1.00;;;11.50;99.90;;;11.44;100.00;98293.56;5006780;28;20041;-78
2022/04/07 09:55:36;;;;;;;2.80;1.33;;;11.60;99.90;;;11.45;100.00;98280.31;5005898;28;20042;-75
2022/04/07 09:58:10;;;;;;;3.50;1.30;;;11.70;99.90;;;11.49;100.00;98279.19;5006477;28;20078;-78
2022/04/07 10:00:37;;;;;;;1.35;1.00;;;11.70;99.90;;;11.54;100.00;98249.06;5009051;28;20537;-78
2022/04/07 10:03:05;;;;;;;3.75;1.10;;;12.20;99.90;;;11.72;100.00;98250.59;5011241;28;20073;-78
2022/04/07 10:05:34;;;;;;;2.55;0.95;;;11.90;99.90;;;11.88;100.00;98252.25;5012177;28;20141;-77
2022/04/07 10:08:02;;;;;;;1.80;1.00;;;11.90;99.90;;;11.99;100.00;98270.00;5010619;28;20056;-77
2022/04/07 10:10:30;;;;;;;2.00;1.30;;;12.20;99.90;;;12.09;100.00;98265.03;5012163;28;20053;-76
2022/04/07 10:12:59;;;;;;;3.10;1.08;;;12.30;99.90;;;12.18;100.00;98223.09;5009557;28;20126;-76
2022/04/07 10:15:27;;;;;;;1.10;1.00;;;12.60;99.90;;;12.26;100.00;98250.78;4993964;28;20495;-77
2022/04/07 10:17:58;;;;;;;3.33;0.98;;;13.60;99.90;;;12.29;100.00;98218.94;5011758;28;20503;-80
2022/04/07 10:20:37;;;;;;;3.25;0.90;;;12.50;99.90;;;12.41;100.00;98238.38;5013447;28;20050;-81